Cottam, Canada
Current Conditions -  °F | °C
As of 3:00 PM on Tuesday 27 Jan 2015 (Local Time) from CYQG Reporting Station
Broken Clouds Broken Clouds  
Wind Chill: 15°   Ceiling: 27000
Heat Index: 25°   Visibility: 15mi
Dew Point: 12°   Wind: 10mph
Humidity: 59%   Direction: 340°NNW
Pressure: 30.1"   Gusts: 17mph
Location:  42.13°N, 82.75°W
Report Text: CYQG 272000Z 34009G15KT 15SM SCT030 BKN270 M04/M11 A3010 RMK SC4CI1 SLP205
Loading
Personal Weather Stations






























Interactive Weather Map New forecast layout! Learn more

10-Day Weather Forecast

Advertisements
Track Severe Weather on mobile